createdAt,value
2022-10-05T00:12:45.591Z,59.08
2022-10-05T00:15:21.846Z,58.92
2022-10-05T00:17:55.578Z,58.78
2022-10-05T00:20:28.618Z,59.11
2022-10-05T00:23:04.546Z,59.18
2022-10-05T00:25:38.754Z,59.09
2022-10-05T00:38:28.538Z,58.94
2022-10-05T00:41:18.629Z,59.00
2022-10-05T00:44:33.989Z,58.85
2022-10-05T00:47:38.556Z,58.96
2022-10-05T00:50:40.339Z,58.89
2022-10-05T01:07:18.484Z,59.08
2022-10-05T01:10:03.689Z,58.87
2022-10-05T01:12:55.589Z,58.97
2022-10-05T01:15:35.843Z,59.01
2022-10-05T01:18:24.565Z,59.10
2022-10-05T01:21:12.616Z,59.10
2022-10-05T01:31:27.660Z,59.02
2022-10-05T01:34:16.070Z,58.93
2022-10-05T01:37:08.556Z,58.91
2022-10-05T01:39:53.693Z,59.06
2022-10-05T01:42:48.594Z,59.05
2022-10-05T01:45:34.644Z,59.18
2022-10-05T01:58:47.528Z,59.32
2022-10-05T02:01:43.588Z,59.15
2022-10-05T02:04:59.763Z,59.10
2022-10-05T02:07:32.054Z,59.10
2022-10-05T02:10:19.371Z,59.15
2022-10-05T02:26:45.741Z,59.17
2022-10-05T02:29:27.110Z,59.13
2022-10-05T02:32:13.566Z,59.12
2022-10-05T02:34:47.174Z,59.10
2022-10-05T02:37:39.538Z,59.10
2022-10-05T02:40:33.993Z,58.94
2022-10-05T02:53:42.534Z,59.21
2022-10-05T02:56:34.564Z,59.39
2022-10-05T02:59:20.097Z,59.42
2022-10-05T03:02:10.587Z,59.36
2022-10-05T03:05:07.383Z,59.30
2022-10-05T03:18:40.515Z,59.53
2022-10-05T03:21:42.586Z,59.37
2022-10-05T03:24:38.453Z,59.29
2022-10-05T03:27:37.549Z,59.33
2022-10-05T03:30:16.003Z,59.33
2022-10-05T03:46:55.594Z,59.07
2022-10-05T03:49:48.334Z,59.14
2022-10-05T03:52:39.982Z,59.16
2022-10-05T03:55:39.994Z,58.96
2022-10-05T03:58:26.554Z,58.89
2022-10-05T04:01:14.795Z,58.78
2022-10-05T04:14:20.533Z,58.95
2022-10-05T04:17:07.573Z,59.03
2022-10-05T04:19:51.918Z,58.92
2022-10-05T04:22:37.559Z,59.04
2022-10-05T04:25:18.322Z,58.93
2022-10-05T04:39:03.532Z,59.18
2022-10-05T04:42:05.541Z,59.06
2022-10-05T04:45:09.462Z,58.99
2022-10-05T04:48:30.566Z,59.09
2022-10-05T04:51:22.767Z,59.37
2022-10-05T04:54:16.535Z,59.27
2022-10-05T05:07:46.536Z,59.37
2022-10-05T05:11:11.276Z,59.37
2022-10-05T05:14:24.719Z,59.31
2022-10-05T05:17:18.342Z,59.30
2022-10-05T05:20:15.563Z,59.25
2022-10-05T05:33:35.553Z,59.25
2022-10-05T05:36:28.682Z,59.47
2022-10-05T05:39:30.535Z,59.26
2022-10-05T05:42:21.999Z,59.45
2022-10-05T05:45:14.537Z,59.48
2022-10-05T05:59:05.544Z,59.70
2022-10-05T06:01:46.961Z,59.71
2022-10-05T06:04:37.546Z,59.74
2022-10-05T06:07:20.293Z,59.81
2022-10-05T06:10:11.559Z,59.88
2022-10-05T06:13:01.723Z,59.97
2022-10-05T06:15:53.807Z,59.97
2022-10-05T06:26:10.899Z,60.27
2022-10-05T06:29:00.563Z,60.27
2022-10-05T06:32:04.362Z,60.35
2022-10-05T06:35:02.541Z,60.42
2022-10-05T06:37:59.765Z,60.32
2022-10-05T06:41:07.526Z,60.38
2022-10-05T06:54:47.566Z,60.47
2022-10-05T06:57:46.959Z,60.16
2022-10-05T07:00:30.517Z,60.15
2022-10-05T07:03:19.732Z,60.35
2022-10-05T07:06:12.526Z,60.41
2022-10-05T07:19:41.029Z,60.48
2022-10-05T07:22:40.569Z,60.43
2022-10-05T07:25:27.575Z,60.43
2022-10-05T07:28:09.047Z,60.60
2022-10-05T07:31:02.678Z,60.41
2022-10-05T07:33:46.665Z,60.42
2022-10-05T07:36:42.549Z,60.48
2022-10-05T07:46:48.935Z,60.66
2022-10-05T07:49:49.534Z,60.79
2022-10-05T07:52:35.660Z,60.84
2022-10-05T07:55:27.554Z,60.82
2022-10-05T07:58:22.586Z,61.05
2022-10-05T08:01:14.563Z,60.88
2022-10-05T08:14:38.553Z,61.04
2022-10-05T08:17:25.597Z,61.02
2022-10-05T08:20:30.150Z,60.96
2022-10-05T08:23:18.682Z,60.99
2022-10-05T08:26:15.526Z,60.93
2022-10-05T08:39:53.554Z,61.57
2022-10-05T08:43:01.446Z,61.40
2022-10-05T08:46:13.610Z,61.42
2022-10-05T08:49:34.985Z,61.38
2022-10-05T08:52:33.536Z,61.64
2022-10-05T08:55:40.025Z,61.78
2022-10-05T09:09:11.493Z,61.38
2022-10-05T09:12:20.554Z,61.25
2022-10-05T09:15:26.443Z,60.85
2022-10-05T09:19:00.556Z,60.68
2022-10-05T09:21:41.095Z,60.54
2022-10-05T09:35:07.491Z,60.74
2022-10-05T09:38:24.545Z,60.77
2022-10-05T09:41:48.741Z,60.80
2022-10-05T09:45:21.495Z,60.85
2022-10-05T10:02:31.619Z,59.71
2022-10-05T10:06:11.535Z,59.60
2022-10-05T10:09:27.884Z,59.99
2022-10-05T10:12:41.519Z,59.86
2022-10-05T10:15:51.815Z,59.85
2022-10-05T10:29:32.509Z,58.91
2022-10-05T10:32:46.531Z,58.78
2022-10-05T10:35:33.074Z,58.83
2022-10-05T10:38:42.520Z,58.67
2022-10-05T10:41:44.397Z,58.30
2022-10-05T10:55:24.502Z,58.20
2022-10-05T10:58:48.505Z,58.06
2022-10-05T11:01:32.987Z,57.94
2022-10-05T11:04:46.538Z,57.55
2022-10-05T11:21:34.505Z,57.89
2022-10-05T11:24:56.526Z,57.61
2022-10-05T11:27:59.457Z,57.24
2022-10-05T11:31:32.170Z,56.98
2022-10-05T11:34:43.052Z,56.77
2022-10-05T11:47:56.538Z,55.95
2022-10-05T11:50:45.536Z,55.19
2022-10-05T11:53:29.443Z,54.66
2022-10-05T11:56:20.598Z,53.93
2022-10-05T11:59:03.302Z,54.54
2022-10-05T12:01:55.523Z,54.83
2022-10-05T12:15:22.542Z,53.07
2022-10-05T12:18:02.742Z,53.08
2022-10-05T12:20:53.518Z,53.08
2022-10-05T12:23:37.058Z,52.96
2022-10-05T12:26:31.556Z,52.84
2022-10-05T12:40:25.523Z,52.74
2022-10-05T12:43:06.912Z,53.02
2022-10-05T12:46:05.573Z,52.90
2022-10-05T12:49:04.227Z,52.87
2022-10-05T12:51:53.520Z,52.81
2022-10-05T12:54:45.338Z,53.33
2022-10-05T13:08:14.492Z,53.20
2022-10-05T13:11:02.239Z,53.40
2022-10-05T13:14:01.931Z,53.43
2022-10-05T13:16:55.182Z,53.52
2022-10-05T13:19:39.850Z,53.00
2022-10-05T13:36:14.231Z,52.63
2022-10-05T13:38:59.774Z,53.42
2022-10-05T13:41:56.517Z,53.36
2022-10-05T13:44:43.333Z,53.34
2022-10-05T14:01:11.784Z,53.74
2022-10-05T14:04:05.705Z,53.36
2022-10-05T14:06:45.556Z,53.16
2022-10-05T14:09:31.034Z,53.24
2022-10-05T14:12:26.510Z,53.04
2022-10-05T14:15:20.652Z,52.57
2022-10-05T14:28:34.596Z,50.82
2022-10-05T14:31:21.575Z,50.62
2022-10-05T14:33:54.612Z,49.44
2022-10-05T14:36:42.569Z,48.53
2022-10-05T14:39:24.810Z,48.04
2022-10-05T14:56:32.539Z,44.38
2022-10-05T14:59:29.126Z,42.89
2022-10-05T15:02:52.546Z,43.11
2022-10-05T15:05:31.631Z,42.32
2022-10-05T15:08:30.510Z,42.29
2022-10-05T15:11:07.548Z,43.30
2022-10-05T15:21:04.584Z,46.29
2022-10-05T15:23:43.094Z,46.88
2022-10-05T15:26:44.550Z,47.01
2022-10-05T15:29:47.397Z,47.73
2022-10-05T15:32:46.521Z,48.15
2022-10-05T15:35:42.310Z,48.22
2022-10-05T15:48:54.502Z,49.64
2022-10-05T15:51:53.506Z,50.11
2022-10-05T15:55:04.100Z,50.83
2022-10-05T15:57:58.512Z,50.80
2022-10-05T16:00:41.763Z,50.89
2022-10-05T16:14:25.505Z,52.32
2022-10-05T16:17:26.539Z,52.41
2022-10-05T16:20:30.781Z,52.84
2022-10-05T16:23:22.534Z,53.08
2022-10-05T16:26:14.577Z,52.89
2022-10-05T16:29:06.523Z,53.09
2022-10-05T16:31:53.863Z,53.52
2022-10-05T16:41:34.742Z,53.57
2022-10-05T16:44:21.276Z,53.88
2022-10-05T16:47:13.530Z,54.30
2022-10-05T16:49:59.246Z,54.28
2022-10-05T16:52:43.516Z,54.64
2022-10-05T16:55:30.120Z,54.39
2022-10-05T17:08:52.545Z,54.78
2022-10-05T17:11:54.523Z,54.61
2022-10-05T17:14:47.618Z,55.03
2022-10-05T17:18:01.509Z,54.87
2022-10-05T17:20:51.717Z,55.28
2022-10-05T17:34:31.492Z,55.96
2022-10-05T17:37:48.499Z,55.69
2022-10-05T17:40:34.898Z,55.87
2022-10-05T17:43:33.816Z,56.12
2022-10-05T17:46:09.776Z,55.74
2022-10-05T17:49:10.514Z,55.88
2022-10-05T17:52:01.655Z,55.98
2022-10-05T18:01:41.611Z,56.28
2022-10-05T18:04:47.834Z,56.40
2022-10-05T18:07:30.537Z,56.56
2022-10-05T18:10:22.644Z,56.64
2022-10-05T18:13:37.551Z,56.74
2022-10-05T18:16:11.146Z,56.48
2022-10-05T18:29:21.492Z,56.85
2022-10-05T18:32:15.545Z,56.84
2022-10-05T18:35:03.352Z,56.87
2022-10-05T18:38:03.527Z,57.14
2022-10-05T18:40:55.276Z,57.13
2022-10-05T18:57:58.810Z,57.22
2022-10-05T19:01:12.913Z,57.58
2022-10-05T19:04:15.523Z,57.35
2022-10-05T19:07:09.184Z,57.59
2022-10-05T19:10:14.551Z,57.69
2022-10-05T19:23:53.545Z,57.82
2022-10-05T19:26:58.687Z,57.84
2022-10-05T19:30:04.528Z,58.07
2022-10-05T19:32:54.530Z,57.86
2022-10-05T19:35:51.522Z,57.82
2022-10-05T19:49:05.613Z,58.38
2022-10-05T19:51:49.734Z,58.44
2022-10-05T19:54:33.502Z,58.18
2022-10-05T19:57:16.528Z,58.42
2022-10-05T19:59:56.515Z,58.16
2022-10-05T20:16:39.633Z,58.65
2022-10-05T20:19:36.526Z,58.67
2022-10-05T20:22:30.029Z,58.71
2022-10-05T20:25:13.511Z,58.70
2022-10-05T20:27:49.688Z,58.57
2022-10-05T20:30:25.529Z,58.80
2022-10-05T20:43:36.510Z,58.79
2022-10-05T20:46:09.582Z,58.94
2022-10-05T20:48:36.124Z,59.12
2022-10-05T20:51:17.237Z,59.02
2022-10-05T20:53:50.551Z,59.23
2022-10-05T20:56:23.510Z,58.93
2022-10-05T21:09:36.527Z,59.39
2022-10-05T21:12:10.285Z,59.31
2022-10-05T21:14:43.518Z,59.42
2022-10-05T21:17:16.586Z,59.37
2022-10-05T21:19:43.129Z,59.57
2022-10-05T21:36:04.513Z,59.76
2022-10-05T21:38:37.541Z,59.91
2022-10-05T21:41:11.496Z,59.83
2022-10-05T21:43:45.141Z,59.76
2022-10-05T21:46:23.538Z,59.71
2022-10-05T21:48:56.702Z,59.93
2022-10-05T21:51:34.200Z,59.87
2022-10-05T22:02:04.472Z,60.42
2022-10-05T22:04:44.491Z,60.24
2022-10-05T22:07:19.841Z,60.15
2022-10-05T22:09:53.508Z,60.29
2022-10-05T22:12:27.109Z,60.36
2022-10-05T22:15:00.506Z,60.45
2022-10-05T22:28:51.522Z,60.72
2022-10-05T22:31:24.669Z,61.03
2022-10-05T22:33:51.408Z,61.08
2022-10-05T22:36:31.497Z,60.76
2022-10-05T22:39:04.575Z,60.91
2022-10-05T22:41:31.198Z,61.05
2022-10-05T22:57:52.490Z,61.24
2022-10-05T23:00:56.429Z,61.26
2022-10-05T23:03:33.600Z,61.14
2022-10-05T23:06:09.450Z,61.18
2022-10-05T23:08:45.494Z,61.04
2022-10-05T23:11:21.011Z,61.03
2022-10-05T23:24:11.495Z,60.97
2022-10-05T23:26:51.513Z,60.94
2022-10-05T23:29:24.598Z,60.64
2022-10-05T23:31:51.181Z,60.85
2022-10-05T23:34:31.521Z,60.77
2022-10-05T23:37:04.586Z,60.60
2022-10-05T23:49:53.462Z,60.68
2022-10-05T23:52:34.190Z,60.70
2022-10-05T23:55:08.836Z,60.56
2022-10-05T23:57:41.517Z,60.56
